sensor_id;sensor_type;location;lat;lon;timestamp;P1;durP1;ratioP1;P2;durP2;ratioP2
10277;SDS011;5184;51.376;7.148;2022-09-09T00:00:00;2.43;;;1.20;;
10277;SDS011;5184;51.376;7.148;2022-09-09T00:02:27;2.07;;;1.40;;
10277;SDS011;5184;51.376;7.148;2022-09-09T00:04:57;2.10;;;1.30;;
10277;SDS011;5184;51.376;7.148;2022-09-09T00:10:09;4.83;;;1.50;;
10277;SDS011;5184;51.376;7.148;2022-09-09T00:12:37;2.50;;;1.80;;
10277;SDS011;5184;51.376;7.148;2022-09-09T00:15:05;2.20;;;1.40;;
10277;SDS011;5184;51.376;7.148;2022-09-09T00:17:36;3.33;;;1.43;;
10277;SDS011;5184;51.376;7.148;2022-09-09T00:20:05;2.03;;;1.27;;
10277;SDS011;5184;51.376;7.148;2022-09-09T00:22:29;2.70;;;1.50;;
10277;SDS011;5184;51.376;7.148;2022-09-09T00:24:56;3.47;;;1.27;;
10277;SDS011;5184;51.376;7.148;2022-09-09T00:30:19;2.27;;;1.50;;
10277;SDS011;5184;51.376;7.148;2022-09-09T00:32:46;3.13;;;1.33;;
10277;SDS011;5184;51.376;7.148;2022-09-09T00:35:31;2.17;;;1.50;;
10277;SDS011;5184;51.376;7.148;2022-09-09T00:37:56;1.70;;;1.40;;
10277;SDS011;5184;51.376;7.148;2022-09-09T00:40:31;2.07;;;1.50;;
10277;SDS011;5184;51.376;7.148;2022-09-09T00:43:03;3.10;;;1.70;;
10277;SDS011;5184;51.376;7.148;2022-09-09T00:48:18;2.93;;;1.50;;
10277;SDS011;5184;51.376;7.148;2022-09-09T00:50:49;2.83;;;1.87;;
10277;SDS011;5184;51.376;7.148;2022-09-09T00:53:36;3.60;;;2.10;;
10277;SDS011;5184;51.376;7.148;2022-09-09T00:56:09;3.00;;;1.80;;
10277;SDS011;5184;51.376;7.148;2022-09-09T00:58:45;2.73;;;1.83;;
10277;SDS011;5184;51.376;7.148;2022-09-09T01:01:10;3.60;;;1.90;;
10277;SDS011;5184;51.376;7.148;2022-09-09T01:03:43;2.47;;;1.80;;
10277;SDS011;5184;51.376;7.148;2022-09-09T01:06:22;3.40;;;1.70;;
10277;SDS011;5184;51.376;7.148;2022-09-09T01:09:54;2.47;;;1.80;;
10277;SDS011;5184;51.376;7.148;2022-09-09T01:11:40;4.03;;;2.47;;
10277;SDS011;5184;51.376;7.148;2022-09-09T01:14:10;3.40;;;2.33;;
10277;SDS011;5184;51.376;7.148;2022-09-09T01:16:46;2.63;;;2.10;;
10277;SDS011;5184;51.376;7.148;2022-09-09T01:19:16;5.63;;;2.67;;
10277;SDS011;5184;51.376;7.148;2022-09-09T01:21:47;4.57;;;2.80;;
10277;SDS011;5184;51.376;7.148;2022-09-09T01:24:38;2.90;;;2.57;;
10277;SDS011;5184;51.376;7.148;2022-09-09T01:27:04;2.73;;;2.33;;
10277;SDS011;5184;51.376;7.148;2022-09-09T01:29:30;5.43;;;3.30;;
10277;SDS011;5184;51.376;7.148;2022-09-09T01:31:58;3.67;;;3.30;;
10277;SDS011;5184;51.376;7.148;2022-09-09T01:34:27;5.77;;;3.53;;
10277;SDS011;5184;51.376;7.148;2022-09-09T01:36:57;5.10;;;4.00;;
10277;SDS011;5184;51.376;7.148;2022-09-09T01:39:23;5.43;;;3.33;;
10277;SDS011;5184;51.376;7.148;2022-09-09T01:41:50;5.43;;;3.97;;
10277;SDS011;5184;51.376;7.148;2022-09-09T01:44:16;6.03;;;3.63;;
10277;SDS011;5184;51.376;7.148;2022-09-09T01:46:43;4.47;;;3.57;;
10277;SDS011;5184;51.376;7.148;2022-09-09T01:49:10;5.07;;;3.70;;
10277;SDS011;5184;51.376;7.148;2022-09-09T01:51:38;3.87;;;3.53;;
10277;SDS011;5184;51.376;7.148;2022-09-09T01:54:04;4.23;;;3.83;;
10277;SDS011;5184;51.376;7.148;2022-09-09T01:59:21;5.57;;;4.07;;
10277;SDS011;5184;51.376;7.148;2022-09-09T02:01:53;7.13;;;3.97;;
10277;SDS011;5184;51.376;7.148;2022-09-09T02:04:24;6.47;;;4.17;;
10277;SDS011;5184;51.376;7.148;2022-09-09T02:06:49;5.00;;;4.00;;
10277;SDS011;5184;51.376;7.148;2022-09-09T02:09:15;4.37;;;3.97;;
10277;SDS011;5184;51.376;7.148;2022-09-09T02:11:42;5.37;;;4.03;;
10277;SDS011;5184;51.376;7.148;2022-09-09T02:14:12;4.53;;;3.80;;
10277;SDS011;5184;51.376;7.148;2022-09-09T02:16:42;4.47;;;3.80;;
10277;SDS011;5184;51.376;7.148;2022-09-09T02:19:08;5.17;;;4.20;;
10277;SDS011;5184;51.376;7.148;2022-09-09T02:21:34;5.67;;;4.20;;
10277;SDS011;5184;51.376;7.148;2022-09-09T02:24:02;6.40;;;4.50;;
10277;SDS011;5184;51.376;7.148;2022-09-09T02:26:27;9.07;;;4.00;;
10277;SDS011;5184;51.376;7.148;2022-09-09T02:28:55;6.17;;;4.23;;
10277;SDS011;5184;51.376;7.148;2022-09-09T02:31:22;5.53;;;4.20;;
10277;SDS011;5184;51.376;7.148;2022-09-09T02:33:51;6.53;;;4.20;;
10277;SDS011;5184;51.376;7.148;2022-09-09T02:36:14;4.67;;;3.70;;
10277;SDS011;5184;51.376;7.148;2022-09-09T02:38:44;7.00;;;3.87;;
10277;SDS011;5184;51.376;7.148;2022-09-09T02:41:08;4.33;;;3.90;;
10277;SDS011;5184;51.376;7.148;2022-09-09T02:43:35;6.57;;;3.53;;
10277;SDS011;5184;51.376;7.148;2022-09-09T02:46:03;6.73;;;3.90;;
10277;SDS011;5184;51.376;7.148;2022-09-09T02:48:31;6.43;;;3.57;;
10277;SDS011;5184;51.376;7.148;2022-09-09T02:51:03;5.37;;;3.60;;
10277;SDS011;5184;51.376;7.148;2022-09-09T02:53:35;5.27;;;3.93;;
10277;SDS011;5184;51.376;7.148;2022-09-09T02:56:01;7.27;;;3.37;;
10277;SDS011;5184;51.376;7.148;2022-09-09T02:58:26;5.77;;;3.57;;
10277;SDS011;5184;51.376;7.148;2022-09-09T03:00:53;5.07;;;3.33;;
10277;SDS011;5184;51.376;7.148;2022-09-09T03:03:19;5.47;;;3.33;;
10277;SDS011;5184;51.376;7.148;2022-09-09T03:05:46;3.77;;;3.10;;
10277;SDS011;5184;51.376;7.148;2022-09-09T03:08:13;6.30;;;2.93;;
10277;SDS011;5184;51.376;7.148;2022-09-09T03:10:39;6.80;;;3.40;;
10277;SDS011;5184;51.376;7.148;2022-09-09T03:13:06;6.10;;;3.00;;
10277;SDS011;5184;51.376;7.148;2022-09-09T03:15:34;4.57;;;3.10;;
10277;SDS011;5184;51.376;7.148;2022-09-09T03:18:00;6.30;;;2.43;;
10277;SDS011;5184;51.376;7.148;2022-09-09T03:20:27;5.20;;;2.70;;
10277;SDS011;5184;51.376;7.148;2022-09-09T03:22:54;5.03;;;2.60;;
10277;SDS011;5184;51.376;7.148;2022-09-09T03:25:20;5.77;;;2.67;;
10277;SDS011;5184;51.376;7.148;2022-09-09T03:27:47;6.23;;;3.23;;
10277;SDS011;5184;51.376;7.148;2022-09-09T03:30:14;6.33;;;2.80;;
10277;SDS011;5184;51.376;7.148;2022-09-09T03:32:41;4.17;;;2.57;;
10277;SDS011;5184;51.376;7.148;2022-09-09T03:35:08;5.57;;;2.70;;
10277;SDS011;5184;51.376;7.148;2022-09-09T03:37:35;4.57;;;3.13;;
10277;SDS011;5184;51.376;7.148;2022-09-09T03:40:03;3.10;;;2.80;;
10277;SDS011;5184;51.376;7.148;2022-09-09T03:42:30;4.33;;;2.80;;
10277;SDS011;5184;51.376;7.148;2022-09-09T03:44:57;5.33;;;2.87;;
10277;SDS011;5184;51.376;7.148;2022-09-09T03:47:24;5.40;;;2.70;;
10277;SDS011;5184;51.376;7.148;2022-09-09T03:49:51;3.83;;;2.40;;
10277;SDS011;5184;51.376;7.148;2022-09-09T03:52:18;5.43;;;2.53;;
10277;SDS011;5184;51.376;7.148;2022-09-09T03:54:44;5.03;;;2.47;;
10277;SDS011;5184;51.376;7.148;2022-09-09T03:57:11;5.07;;;2.73;;
10277;SDS011;5184;51.376;7.148;2022-09-09T03:59:37;4.27;;;2.40;;
10277;SDS011;5184;51.376;7.148;2022-09-09T04:02:05;4.67;;;2.80;;
10277;SDS011;5184;51.376;7.148;2022-09-09T04:04:31;4.37;;;2.43;;
10277;SDS011;5184;51.376;7.148;2022-09-09T04:06:58;4.73;;;2.60;;
10277;SDS011;5184;51.376;7.148;2022-09-09T04:09:25;6.00;;;2.77;;
10277;SDS011;5184;51.376;7.148;2022-09-09T04:11:51;3.17;;;2.30;;
10277;SDS011;5184;51.376;7.148;2022-09-09T04:14:18;5.47;;;2.60;;
10277;SDS011;5184;51.376;7.148;2022-09-09T04:16:44;4.27;;;2.53;;
10277;SDS011;5184;51.376;7.148;2022-09-09T04:19:11;5.23;;;2.60;;
10277;SDS011;5184;51.376;7.148;2022-09-09T04:21:38;4.10;;;2.60;;
10277;SDS011;5184;51.376;7.148;2022-09-09T04:24:04;4.80;;;2.50;;
10277;SDS011;5184;51.376;7.148;2022-09-09T04:26:32;5.77;;;3.13;;
10277;SDS011;5184;51.376;7.148;2022-09-09T04:28:59;4.53;;;2.60;;
10277;SDS011;5184;51.376;7.148;2022-09-09T04:31:25;3.83;;;3.10;;
10277;SDS011;5184;51.376;7.148;2022-09-09T04:33:52;4.73;;;2.80;;
10277;SDS011;5184;51.376;7.148;2022-09-09T04:36:19;5.73;;;2.50;;
10277;SDS011;5184;51.376;7.148;2022-09-09T04:38:46;4.77;;;3.00;;
10277;SDS011;5184;51.376;7.148;2022-09-09T04:41:13;5.93;;;2.87;;
10277;SDS011;5184;51.376;7.148;2022-09-09T04:43:39;6.43;;;3.00;;
10277;SDS011;5184;51.376;7.148;2022-09-09T04:46:07;5.70;;;2.57;;
10277;SDS011;5184;51.376;7.148;2022-09-09T04:48:34;6.03;;;3.40;;
10277;SDS011;5184;51.376;7.148;2022-09-09T04:51:02;10.93;;;3.30;;
10277;SDS011;5184;51.376;7.148;2022-09-09T04:53:27;5.77;;;2.97;;
10277;SDS011;5184;51.376;7.148;2022-09-09T04:56:09;6.47;;;3.00;;
10277;SDS011;5184;51.376;7.148;2022-09-09T04:58:37;4.83;;;3.20;;
10277;SDS011;5184;51.376;7.148;2022-09-09T05:01:04;5.70;;;3.00;;
10277;SDS011;5184;51.376;7.148;2022-09-09T05:03:34;7.23;;;3.10;;
10277;SDS011;5184;51.376;7.148;2022-09-09T05:06:03;6.07;;;2.93;;
10277;SDS011;5184;51.376;7.148;2022-09-09T05:08:30;5.97;;;3.20;;
10277;SDS011;5184;51.376;7.148;2022-09-09T05:10:57;6.77;;;2.97;;
10277;SDS011;5184;51.376;7.148;2022-09-09T05:13:23;4.93;;;3.00;;
10277;SDS011;5184;51.376;7.148;2022-09-09T05:15:51;7.53;;;3.10;;
10277;SDS011;5184;51.376;7.148;2022-09-09T05:18:18;7.23;;;2.90;;
10277;SDS011;5184;51.376;7.148;2022-09-09T05:20:45;7.03;;;3.37;;
10277;SDS011;5184;51.376;7.148;2022-09-09T05:23:11;6.27;;;2.80;;
10277;SDS011;5184;51.376;7.148;2022-09-09T05:25:38;6.07;;;3.13;;
10277;SDS011;5184;51.376;7.148;2022-09-09T05:28:05;7.63;;;2.97;;
10277;SDS011;5184;51.376;7.148;2022-09-09T05:30:33;7.13;;;3.30;;
10277;SDS011;5184;51.376;7.148;2022-09-09T05:32:59;7.10;;;3.37;;
10277;SDS011;5184;51.376;7.148;2022-09-09T05:35:26;6.20;;;3.00;;
10277;SDS011;5184;51.376;7.148;2022-09-09T05:37:52;4.93;;;3.23;;
10277;SDS011;5184;51.376;7.148;2022-09-09T05:40:19;7.43;;;3.60;;
10277;SDS011;5184;51.376;7.148;2022-09-09T05:42:46;7.97;;;3.63;;
10277;SDS011;5184;51.376;7.148;2022-09-09T05:45:13;7.07;;;3.20;;
10277;SDS011;5184;51.376;7.148;2022-09-09T05:47:40;9.63;;;3.00;;
10277;SDS011;5184;51.376;7.148;2022-09-09T05:50:06;5.60;;;3.03;;
10277;SDS011;5184;51.376;7.148;2022-09-09T05:52:33;5.90;;;3.20;;
10277;SDS011;5184;51.376;7.148;2022-09-09T05:55:00;3.90;;;2.70;;
10277;SDS011;5184;51.376;7.148;2022-09-09T05:57:26;8.17;;;3.30;;
10277;SDS011;5184;51.376;7.148;2022-09-09T05:59:53;6.63;;;3.33;;
10277;SDS011;5184;51.376;7.148;2022-09-09T06:02:19;7.93;;;3.30;;
10277;SDS011;5184;51.376;7.148;2022-09-09T06:04:47;4.63;;;2.57;;
10277;SDS011;5184;51.376;7.148;2022-09-09T06:07:13;6.63;;;2.70;;
10277;SDS011;5184;51.376;7.148;2022-09-09T06:09:40;5.77;;;2.87;;
10277;SDS011;5184;51.376;7.148;2022-09-09T06:12:07;6.93;;;2.80;;
10277;SDS011;5184;51.376;7.148;2022-09-09T06:14:33;5.00;;;2.40;;
10277;SDS011;5184;51.376;7.148;2022-09-09T06:17:00;5.30;;;2.63;;
10277;SDS011;5184;51.376;7.148;2022-09-09T06:19:26;5.53;;;2.87;;
10277;SDS011;5184;51.376;7.148;2022-09-09T06:21:53;7.40;;;2.53;;
10277;SDS011;5184;51.376;7.148;2022-09-09T06:24:20;5.37;;;2.37;;
10277;SDS011;5184;51.376;7.148;2022-09-09T06:26:47;5.10;;;2.67;;
10277;SDS011;5184;51.376;7.148;2022-09-09T06:29:14;4.33;;;2.40;;
10277;SDS011;5184;51.376;7.148;2022-09-09T06:31:41;5.83;;;2.30;;
10277;SDS011;5184;51.376;7.148;2022-09-09T06:34:08;5.73;;;2.50;;
10277;SDS011;5184;51.376;7.148;2022-09-09T06:36:35;4.53;;;2.57;;
10277;SDS011;5184;51.376;7.148;2022-09-09T06:39:01;6.57;;;2.43;;
10277;SDS011;5184;51.376;7.148;2022-09-09T06:41:29;7.27;;;2.50;;
10277;SDS011;5184;51.376;7.148;2022-09-09T06:43:55;5.40;;;2.10;;
10277;SDS011;5184;51.376;7.148;2022-09-09T06:46:23;6.67;;;2.37;;
10277;SDS011;5184;51.376;7.148;2022-09-09T06:48:49;5.40;;;2.70;;
10277;SDS011;5184;51.376;7.148;2022-09-09T06:51:17;5.67;;;2.33;;
10277;SDS011;5184;51.376;7.148;2022-09-09T06:53:43;6.37;;;2.43;;
10277;SDS011;5184;51.376;7.148;2022-09-09T06:56:25;7.83;;;2.27;;
10277;SDS011;5184;51.376;7.148;2022-09-09T06:58:53;7.07;;;2.17;;
10277;SDS011;5184;51.376;7.148;2022-09-09T07:01:20;5.20;;;2.20;;
10277;SDS011;5184;51.376;7.148;2022-09-09T07:03:48;5.97;;;2.10;;
10277;SDS011;5184;51.376;7.148;2022-09-09T07:06:15;5.90;;;2.20;;
10277;SDS011;5184;51.376;7.148;2022-09-09T07:08:41;6.17;;;1.80;;
10277;SDS011;5184;51.376;7.148;2022-09-09T07:11:08;3.97;;;1.93;;
10277;SDS011;5184;51.376;7.148;2022-09-09T07:13:35;4.77;;;2.00;;
10277;SDS011;5184;51.376;7.148;2022-09-09T07:16:03;4.60;;;2.00;;
10277;SDS011;5184;51.376;7.148;2022-09-09T07:18:31;6.13;;;2.17;;
10277;SDS011;5184;51.376;7.148;2022-09-09T07:20:58;4.23;;;1.60;;
10277;SDS011;5184;51.376;7.148;2022-09-09T07:23:24;5.63;;;1.80;;
10277;SDS011;5184;51.376;7.148;2022-09-09T07:25:51;3.77;;;1.70;;
10277;SDS011;5184;51.376;7.148;2022-09-09T07:28:18;6.00;;;1.80;;
10277;SDS011;5184;51.376;7.148;2022-09-09T07:33:18;4.77;;;1.90;;
10277;SDS011;5184;51.376;7.148;2022-09-09T07:35:45;4.57;;;1.70;;
10277;SDS011;5184;51.376;7.148;2022-09-09T07:38:11;5.13;;;1.90;;
10277;SDS011;5184;51.376;7.148;2022-09-09T07:40:38;3.30;;;1.87;;
10277;SDS011;5184;51.376;7.148;2022-09-09T07:43:05;5.83;;;2.37;;
10277;SDS011;5184;51.376;7.148;2022-09-09T07:45:33;5.53;;;1.83;;
10277;SDS011;5184;51.376;7.148;2022-09-09T07:48:00;4.83;;;1.93;;
10277;SDS011;5184;51.376;7.148;2022-09-09T07:50:27;4.23;;;2.00;;
10277;SDS011;5184;51.376;7.148;2022-09-09T07:52:53;5.17;;;1.67;;
10277;SDS011;5184;51.376;7.148;2022-09-09T07:55:21;5.03;;;2.23;;
10277;SDS011;5184;51.376;7.148;2022-09-09T07:57:47;4.47;;;1.80;;
10277;SDS011;5184;51.376;7.148;2022-09-09T08:00:14;4.87;;;1.97;;
10277;SDS011;5184;51.376;7.148;2022-09-09T08:02:41;5.00;;;1.67;;
10277;SDS011;5184;51.376;7.148;2022-09-09T08:05:08;5.33;;;1.90;;
10277;SDS011;5184;51.376;7.148;2022-09-09T08:07:35;5.87;;;2.00;;
10277;SDS011;5184;51.376;7.148;2022-09-09T08:10:03;7.47;;;2.27;;
10277;SDS011;5184;51.376;7.148;2022-09-09T08:12:30;4.63;;;1.83;;
10277;SDS011;5184;51.376;7.148;2022-09-09T08:14:57;4.83;;;1.90;;
10277;SDS011;5184;51.376;7.148;2022-09-09T08:17:23;4.93;;;2.13;;
10277;SDS011;5184;51.376;7.148;2022-09-09T08:19:51;4.50;;;1.60;;
10277;SDS011;5184;51.376;7.148;2022-09-09T08:22:18;6.23;;;2.40;;
10277;SDS011;5184;51.376;7.148;2022-09-09T08:24:45;5.53;;;1.87;;
10277;SDS011;5184;51.376;7.148;2022-09-09T08:27:11;5.37;;;2.03;;
10277;SDS011;5184;51.376;7.148;2022-09-09T08:29:38;4.20;;;1.83;;
10277;SDS011;5184;51.376;7.148;2022-09-09T08:32:05;6.03;;;2.27;;
10277;SDS011;5184;51.376;7.148;2022-09-09T08:34:31;3.90;;;1.80;;
10277;SDS011;5184;51.376;7.148;2022-09-09T08:36:58;4.50;;;1.90;;
10277;SDS011;5184;51.376;7.148;2022-09-09T08:39:24;6.63;;;1.87;;
10277;SDS011;5184;51.376;7.148;2022-09-09T08:41:55;4.97;;;1.80;;
10277;SDS011;5184;51.376;7.148;2022-09-09T08:44:41;5.63;;;1.70;;
10277;SDS011;5184;51.376;7.148;2022-09-09T08:52:29;4.40;;;2.00;;
10277;SDS011;5184;51.376;7.148;2022-09-09T08:54:56;6.07;;;1.97;;
10277;SDS011;5184;51.376;7.148;2022-09-09T08:57:23;3.90;;;1.60;;
10277;SDS011;5184;51.376;7.148;2022-09-09T08:59:50;5.33;;;1.90;;
10277;SDS011;5184;51.376;7.148;2022-09-09T09:05:18;5.23;;;2.10;;
10277;SDS011;5184;51.376;7.148;2022-09-09T09:08:17;4.57;;;1.73;;
10277;SDS011;5184;51.376;7.148;2022-09-09T09:10:39;4.77;;;1.97;;
10277;SDS011;5184;51.376;7.148;2022-09-09T09:13:12;4.13;;;2.00;;
10277;SDS011;5184;51.376;7.148;2022-09-09T09:15:39;4.30;;;2.10;;
10277;SDS011;5184;51.376;7.148;2022-09-09T09:18:07;4.30;;;2.20;;
10277;SDS011;5184;51.376;7.148;2022-09-09T09:23:15;6.23;;;2.27;;
10277;SDS011;5184;51.376;7.148;2022-09-09T09:25:39;4.70;;;1.83;;
10277;SDS011;5184;51.376;7.148;2022-09-09T09:28:15;4.47;;;2.17;;
10277;SDS011;5184;51.376;7.148;2022-09-09T09:30:45;5.57;;;1.90;;
10277;SDS011;5184;51.376;7.148;2022-09-09T09:33:16;3.23;;;1.60;;
10277;SDS011;5184;51.376;7.148;2022-09-09T09:35:41;2.67;;;1.60;;
10277;SDS011;5184;51.376;7.148;2022-09-09T09:38:25;6.43;;;1.90;;
10277;SDS011;5184;51.376;7.148;2022-09-09T09:40:53;3.87;;;2.00;;
10277;SDS011;5184;51.376;7.148;2022-09-09T09:43:22;6.73;;;1.80;;
10277;SDS011;5184;51.376;7.148;2022-09-09T09:45:48;3.90;;;1.70;;
10277;SDS011;5184;51.376;7.148;2022-09-09T09:48:15;2.73;;;1.73;;
10277;SDS011;5184;51.376;7.148;2022-09-09T09:50:50;3.77;;;1.67;;
10277;SDS011;5184;51.376;7.148;2022-09-09T09:53:33;4.17;;;1.70;;
10277;SDS011;5184;51.376;7.148;2022-09-09T09:56:01;4.37;;;1.50;;
10277;SDS011;5184;51.376;7.148;2022-09-09T09:58:49;4.03;;;1.60;;
10277;SDS011;5184;51.376;7.148;2022-09-09T10:01:20;4.87;;;1.67;;
10277;SDS011;5184;51.376;7.148;2022-09-09T10:03:50;5.03;;;1.80;;
10277;SDS011;5184;51.376;7.148;2022-09-09T10:06:12;4.57;;;1.70;;
10277;SDS011;5184;51.376;7.148;2022-09-09T10:08:46;5.00;;;1.70;;
10277;SDS011;5184;51.376;7.148;2022-09-09T10:11:22;4.00;;;1.80;;
10277;SDS011;5184;51.376;7.148;2022-09-09T10:14:19;4.87;;;1.57;;
10277;SDS011;5184;51.376;7.148;2022-09-09T10:16:38;6.23;;;1.63;;
10277;SDS011;5184;51.376;7.148;2022-09-09T10:19:10;5.03;;;1.50;;
10277;SDS011;5184;51.376;7.148;2022-09-09T10:21:51;3.37;;;1.57;;
10277;SDS011;5184;51.376;7.148;2022-09-09T10:26:58;4.77;;;1.57;;
10277;SDS011;5184;51.376;7.148;2022-09-09T10:29:25;3.63;;;1.10;;
10277;SDS011;5184;51.376;7.148;2022-09-09T10:31:57;2.30;;;1.20;;
10277;SDS011;5184;51.376;7.148;2022-09-09T10:37:16;2.40;;;1.10;;
10277;SDS011;5184;51.376;7.148;2022-09-09T10:39:38;2.17;;;1.30;;
10277;SDS011;5184;51.376;7.148;2022-09-09T10:42:11;2.63;;;1.10;;
10277;SDS011;5184;51.376;7.148;2022-09-09T10:44:43;2.83;;;1.30;;
10277;SDS011;5184;51.376;7.148;2022-09-09T10:47:53;2.80;;;1.20;;
10277;SDS011;5184;51.376;7.148;2022-09-09T10:50:28;2.07;;;1.00;;
10277;SDS011;5184;51.376;7.148;2022-09-09T10:53:00;2.73;;;1.07;;
10277;SDS011;5184;51.376;7.148;2022-09-09T10:55:26;2.93;;;1.43;;
10277;SDS011;5184;51.376;7.148;2022-09-09T10:57:52;3.83;;;1.40;;
10277;SDS011;5184;51.376;7.148;2022-09-09T11:00:19;3.87;;;1.33;;
10277;SDS011;5184;51.376;7.148;2022-09-09T11:02:47;4.17;;;1.47;;
10277;SDS011;5184;51.376;7.148;2022-09-09T11:05:19;2.97;;;1.23;;
10277;SDS011;5184;51.376;7.148;2022-09-09T11:07:47;3.53;;;1.47;;
10277;SDS011;5184;51.376;7.148;2022-09-09T11:10:21;2.60;;;1.23;;
10277;SDS011;5184;51.376;7.148;2022-09-09T11:12:51;2.83;;;1.27;;
10277;SDS011;5184;51.376;7.148;2022-09-09T11:15:22;2.93;;;1.13;;
10277;SDS011;5184;51.376;7.148;2022-09-09T11:17:49;2.33;;;1.20;;
10277;SDS011;5184;51.376;7.148;2022-09-09T11:20:14;5.37;;;1.30;;
10277;SDS011;5184;51.376;7.148;2022-09-09T11:22:44;3.40;;;1.40;;
10277;SDS011;5184;51.376;7.148;2022-09-09T11:25:15;2.33;;;1.13;;
10277;SDS011;5184;51.376;7.148;2022-09-09T11:27:44;3.70;;;1.30;;
10277;SDS011;5184;51.376;7.148;2022-09-09T11:30:21;2.50;;;1.00;;
10277;SDS011;5184;51.376;7.148;2022-09-09T11:35:55;2.87;;;1.20;;
10277;SDS011;5184;51.376;7.148;2022-09-09T11:38:50;2.17;;;1.23;;
10277;SDS011;5184;51.376;7.148;2022-09-09T11:41:17;2.03;;;1.20;;
10277;SDS011;5184;51.376;7.148;2022-09-09T11:43:44;2.47;;;1.20;;
10277;SDS011;5184;51.376;7.148;2022-09-09T11:46:11;3.87;;;1.40;;
10277;SDS011;5184;51.376;7.148;2022-09-09T11:48:39;1.67;;;1.07;;
10277;SDS011;5184;51.376;7.148;2022-09-09T11:51:08;4.03;;;1.40;;
10277;SDS011;5184;51.376;7.148;2022-09-09T11:53:35;2.90;;;1.27;;
10277;SDS011;5184;51.376;7.148;2022-09-09T11:56:02;3.67;;;1.30;;
10277;SDS011;5184;51.376;7.148;2022-09-09T11:58:35;1.60;;;1.23;;
10277;SDS011;5184;51.376;7.148;2022-09-09T12:01:13;5.03;;;1.57;;
10277;SDS011;5184;51.376;7.148;2022-09-09T12:03:41;4.73;;;1.63;;
10277;SDS011;5184;51.376;7.148;2022-09-09T12:06:09;5.70;;;1.70;;
10277;SDS011;5184;51.376;7.148;2022-09-09T12:08:35;1.50;;;1.30;;
10277;SDS011;5184;51.376;7.148;2022-09-09T12:11:02;2.93;;;1.60;;
10277;SDS011;5184;51.376;7.148;2022-09-09T12:13:29;3.77;;;1.30;;
10277;SDS011;5184;51.376;7.148;2022-09-09T12:15:56;1.70;;;1.20;;
10277;SDS011;5184;51.376;7.148;2022-09-09T12:18:23;2.80;;;1.50;;
10277;SDS011;5184;51.376;7.148;2022-09-09T12:21:08;2.87;;;1.70;;
10277;SDS011;5184;51.376;7.148;2022-09-09T12:23:40;3.43;;;1.60;;
10277;SDS011;5184;51.376;7.148;2022-09-09T12:29:00;3.50;;;1.30;;
10277;SDS011;5184;51.376;7.148;2022-09-09T12:32:11;3.00;;;1.30;;
10277;SDS011;5184;51.376;7.148;2022-09-09T12:34:38;2.83;;;1.30;;
10277;SDS011;5184;51.376;7.148;2022-09-09T12:37:06;1.63;;;1.10;;
10277;SDS011;5184;51.376;7.148;2022-09-09T12:39:38;2.77;;;1.23;;
10277;SDS011;5184;51.376;7.148;2022-09-09T12:42:04;2.83;;;1.43;;
10277;SDS011;5184;51.376;7.148;2022-09-09T12:44:30;3.20;;;1.40;;
10277;SDS011;5184;51.376;7.148;2022-09-09T12:46:58;3.90;;;1.53;;
10277;SDS011;5184;51.376;7.148;2022-09-09T12:49:26;4.37;;;1.80;;
10277;SDS011;5184;51.376;7.148;2022-09-09T12:51:50;4.50;;;1.80;;
10277;SDS011;5184;51.376;7.148;2022-09-09T12:54:18;4.00;;;1.70;;
10277;SDS011;5184;51.376;7.148;2022-09-09T12:56:45;4.70;;;1.80;;
10277;SDS011;5184;51.376;7.148;2022-09-09T12:59:48;4.33;;;1.77;;
10277;SDS011;5184;51.376;7.148;2022-09-09T13:02:02;4.30;;;1.70;;
10277;SDS011;5184;51.376;7.148;2022-09-09T13:04:28;2.70;;;1.57;;
10277;SDS011;5184;51.376;7.148;2022-09-09T13:07:05;2.97;;;1.50;;
10277;SDS011;5184;51.376;7.148;2022-09-09T13:09:21;3.30;;;1.43;;
10277;SDS011;5184;51.376;7.148;2022-09-09T13:11:50;3.03;;;1.77;;
10277;SDS011;5184;51.376;7.148;2022-09-09T13:14:16;3.10;;;1.50;;
10277;SDS011;5184;51.376;7.148;2022-09-09T13:16:42;3.23;;;1.70;;
10277;SDS011;5184;51.376;7.148;2022-09-09T13:19:09;2.67;;;1.60;;
10277;SDS011;5184;51.376;7.148;2022-09-09T13:21:37;3.30;;;1.70;;
10277;SDS011;5184;51.376;7.148;2022-09-09T13:24:04;7.33;;;2.03;;
10277;SDS011;5184;51.376;7.148;2022-09-09T13:26:31;3.70;;;1.40;;
10277;SDS011;5184;51.376;7.148;2022-09-09T13:31:35;2.70;;;1.60;;
10277;SDS011;5184;51.376;7.148;2022-09-09T13:34:02;4.17;;;1.57;;
10277;SDS011;5184;51.376;7.148;2022-09-09T13:36:28;5.00;;;1.83;;
10277;SDS011;5184;51.376;7.148;2022-09-09T13:38:55;4.63;;;1.77;;
10277;SDS011;5184;51.376;7.148;2022-09-09T13:41:22;4.27;;;2.10;;
10277;SDS011;5184;51.376;7.148;2022-09-09T13:43:48;3.60;;;1.50;;
10277;SDS011;5184;51.376;7.148;2022-09-09T13:46:37;4.40;;;1.90;;
10277;SDS011;5184;51.376;7.148;2022-09-09T13:49:18;4.53;;;1.67;;
10277;SDS011;5184;51.376;7.148;2022-09-09T13:51:45;4.10;;;1.80;;
10277;SDS011;5184;51.376;7.148;2022-09-09T13:54:11;3.67;;;1.53;;
10277;SDS011;5184;51.376;7.148;2022-09-09T13:56:37;2.23;;;1.20;;
10277;SDS011;5184;51.376;7.148;2022-09-09T13:59:05;4.23;;;1.70;;
10277;SDS011;5184;51.376;7.148;2022-09-09T14:01:30;2.17;;;1.40;;
10277;SDS011;5184;51.376;7.148;2022-09-09T14:03:57;2.70;;;1.47;;
10277;SDS011;5184;51.376;7.148;2022-09-09T14:06:24;2.67;;;1.40;;
10277;SDS011;5184;51.376;7.148;2022-09-09T14:08:51;3.37;;;1.40;;
10277;SDS011;5184;51.376;7.148;2022-09-09T14:11:17;2.53;;;1.23;;
10277;SDS011;5184;51.376;7.148;2022-09-09T14:13:45;3.47;;;1.23;;
10277;SDS011;5184;51.376;7.148;2022-09-09T14:16:11;3.17;;;1.40;;
10277;SDS011;5184;51.376;7.148;2022-09-09T14:18:38;3.60;;;1.73;;
10277;SDS011;5184;51.376;7.148;2022-09-09T14:21:04;2.07;;;1.40;;
10277;SDS011;5184;51.376;7.148;2022-09-09T14:23:31;5.63;;;1.80;;
10277;SDS011;5184;51.376;7.148;2022-09-09T14:25:57;4.50;;;1.67;;
10277;SDS011;5184;51.376;7.148;2022-09-09T14:28:24;2.23;;;1.20;;
10277;SDS011;5184;51.376;7.148;2022-09-09T14:30:51;3.40;;;1.60;;
10277;SDS011;5184;51.376;7.148;2022-09-09T14:33:17;3.43;;;1.50;;
10277;SDS011;5184;51.376;7.148;2022-09-09T14:35:44;2.43;;;1.50;;
10277;SDS011;5184;51.376;7.148;2022-09-09T14:38:10;4.47;;;1.87;;
10277;SDS011;5184;51.376;7.148;2022-09-09T14:40:37;4.90;;;2.03;;
10277;SDS011;5184;51.376;7.148;2022-09-09T14:43:04;5.47;;;2.20;;
10277;SDS011;5184;51.376;7.148;2022-09-09T14:45:30;6.47;;;2.13;;
10277;SDS011;5184;51.376;7.148;2022-09-09T14:47:57;4.20;;;2.20;;
10277;SDS011;5184;51.376;7.148;2022-09-09T14:50:24;3.27;;;1.87;;
10277;SDS011;5184;51.376;7.148;2022-09-09T14:52:51;5.90;;;2.50;;
10277;SDS011;5184;51.376;7.148;2022-09-09T14:55:17;3.40;;;2.17;;
10277;SDS011;5184;51.376;7.148;2022-09-09T14:57:44;2.97;;;2.00;;
10277;SDS011;5184;51.376;7.148;2022-09-09T15:00:11;3.67;;;2.00;;
10277;SDS011;5184;51.376;7.148;2022-09-09T15:02:38;4.00;;;2.07;;
10277;SDS011;5184;51.376;7.148;2022-09-09T15:05:05;3.37;;;2.00;;
10277;SDS011;5184;51.376;7.148;2022-09-09T15:07:32;4.07;;;2.13;;
10277;SDS011;5184;51.376;7.148;2022-09-09T15:09:58;3.93;;;2.10;;
10277;SDS011;5184;51.376;7.148;2022-09-09T15:12:25;2.87;;;1.43;;
10277;SDS011;5184;51.376;7.148;2022-09-09T15:14:52;2.03;;;0.80;;
10277;SDS011;5184;51.376;7.148;2022-09-09T15:17:18;2.07;;;1.00;;
10277;SDS011;5184;51.376;7.148;2022-09-09T15:19:45;1.13;;;0.70;;
10277;SDS011;5184;51.376;7.148;2022-09-09T15:22:12;2.47;;;0.90;;
10277;SDS011;5184;51.376;7.148;2022-09-09T15:24:39;2.20;;;0.67;;
10277;SDS011;5184;51.376;7.148;2022-09-09T15:27:05;1.17;;;0.90;;
10277;SDS011;5184;51.376;7.148;2022-09-09T15:29:32;0.97;;;0.70;;
10277;SDS011;5184;51.376;7.148;2022-09-09T15:31:58;0.90;;;0.90;;
10277;SDS011;5184;51.376;7.148;2022-09-09T15:34:25;3.03;;;1.00;;
10277;SDS011;5184;51.376;7.148;2022-09-09T15:36:52;2.20;;;0.90;;
10277;SDS011;5184;51.376;7.148;2022-09-09T15:39:18;1.53;;;0.80;;
10277;SDS011;5184;51.376;7.148;2022-09-09T15:41:46;1.77;;;1.00;;
10277;SDS011;5184;51.376;7.148;2022-09-09T15:44:13;3.97;;;0.80;;
10277;SDS011;5184;51.376;7.148;2022-09-09T15:46:45;1.30;;;0.70;;